Aviation Digital Data Service (ADDS)

Output produced by METARs form (1105 UTC 19 January 2019)
found at http://www.aviationweather.gov/metar/data/
 
SYCJ 191000Z 05004KT 9999 SCT018 22/22 Q1013 NOSIG
TAF SYCJ 191025Z 1912/2012 07012KT 9999 BKN020 SCT038 
     BECMG 1921/1923 05006KT 7000 SHRA BKN016 BKN034
       
TAF SYKM 191025Z 1912/1923 07010KT 9999 BKN020
       
TAF SYLT 191025Z 1912/1923 05012KT 9999 BKN026